Time;durP1;ratioP1;P1;durP2;ratioP2;P2;SDS_P1;SDS_P2;PMS_P1;PMS_P2;Temp;Humidity;BMP_temperature;BMP_pressure;BME280_temperature;BME280_humidity;BME280_pressure;Samples;Min_cycle;Max_cycle;Signal;HPM_P1;HPM_P2
2022/08/12 00:54:40;;;;;;;;;;;;;;;;;;;;;
2022/08/12 01:01:26;;;;;;;4.90;4.07;;;;;;;;;;5012298;28;20453;-76
2022/08/12 01:12:54;;;;;;;4.60;4.20;;;;;;;;;;5072184;28;20467;-77
2022/08/12 01:16:07;;;;;;;7.40;4.30;;;;;;;;;;5047576;28;20477;-77
2022/08/12 01:22:08;;;;;;;5.57;4.67;;;;;;;;;;5084955;22;20553;-76
2022/08/12 01:24:55;;;;;;;7.87;4.40;;;;;;;;;;5074289;28;20780;-77
2022/08/12 01:27:22;;;;;;;7.10;4.70;;;;;;;;;;5071336;28;20447;-77
2022/08/12 01:33:10;;;;;;;5.10;4.60;;;;;;;;;;4157315;26;20988;-76
2022/08/12 01:36:02;;;;;;;5.37;4.87;;;;;;;;;;5053677;28;20514;-77
2022/08/12 01:38:57;;;;;;;;;;;;;;;;;;;;;
2022/08/12 01:42:05;;;;;;;7.40;4.83;;;;;;;;;;5053529;28;20460;-76
2022/08/12 01:44:42;;;;;;;5.50;5.00;;;;;;;;;;4992102;28;20426;-76
2022/08/12 01:47:39;;;;;;;;;;;;;;;;;;;;;
2022/08/12 02:03:02;;;;;;;5.97;5.37;;;;;;;;;;4991915;28;20465;-75
2022/08/12 02:15:31;;;;;;;7.77;5.03;;;;;;;;;;5093554;28;20390;-75
2022/08/12 02:18:05;;;;;;;7.17;5.93;;;;;;;;;;5011202;28;20417;-75
2022/08/12 02:24:14;;;;;;;;;;;;;;;;;;;;;
2022/08/12 02:27:09;;;;;;;6.40;5.53;;;;;;;;;;5069118;28;20930;-76
2022/08/12 02:42:06;;;;;;;7.50;5.90;;;;;;;;;;5291516;22;20591;-76
2022/08/12 02:45:12;;;;;;;5.90;5.40;;;;;;;;;;5067723;28;20964;-76
2022/08/12 02:48:15;;;;;;;;;;;;;;;;;;;;;
2022/08/12 02:57:10;;;;;;;;;;;;;;;;;;;;;
2022/08/12 03:10:07;;;;;;;6.87;5.17;;;;;;;;;;4895757;29;20433;-76
2022/08/12 03:12:39;;;;;;;6.17;5.37;;;;;;;;;;4875701;29;20440;-76
2022/08/12 03:15:41;;;;;;;7.83;4.70;;;;;;;;;;4876670;29;20517;-75
2022/08/12 03:18:40;;;;;;;;;;;;;;;;;;;;;
2022/08/12 03:25:43;;;;;;;;;;;;;;;;;;;;;
2022/08/12 03:28:04;;;;;;;8.17;6.67;;;;;;;;;;4916243;29;20467;-76
2022/08/12 03:37:14;;;;;;;7.67;6.87;;;;;;;;;;4936495;29;20483;-75
2022/08/12 04:04:46;;;;;;;;;;;;;;;;;;;;;
2022/08/12 04:10:20;;;;;;;7.63;6.90;;;;;;;;;;4993150;28;20461;-76
2022/08/12 04:22:31;;;;;;;9.20;7.60;;;;;;;;;;4935919;29;20561;-76
2022/08/12 04:28:34;;;;;;;;;;;;;;;;;;;;;
2022/08/12 04:31:22;;;;;;;7.93;6.73;;;;;;;;;;4973416;28;20439;-76
2022/08/12 04:59:48;;;;;;;;;;;;;;;;;;;;;
2022/08/12 05:05:56;;;;;;;9.10;8.27;;;;;;;;;;5024053;28;20466;-76
2022/08/12 05:14:00;;;;;;;12.30;8.47;;;;;;;;;;5324938;22;20485;-76
2022/08/12 05:16:27;;;;;;;10.50;7.93;;;;;;;;;;5078354;28;20396;-76
2022/08/12 05:18:53;;;;;;;7.83;7.03;;;;;;;;;;5076205;28;20379;-76
2022/08/12 05:21:19;;;;;;;9.70;7.00;;;;;;;;;;5074700;28;20463;-76
2022/08/12 05:23:45;;;;;;;17.20;7.40;;;;;;;;;;5074254;28;20410;-76
2022/08/12 05:26:11;;;;;;;7.30;6.70;;;;;;;;;;5074583;28;20434;-77
2022/08/12 05:28:37;;;;;;;8.30;7.37;;;;;;;;;;5056928;28;20414;-76
2022/08/12 05:31:03;;;;;;;12.77;7.13;;;;;;;;;;5056293;28;20410;-77
2022/08/12 05:33:37;;;;;;;10.40;7.17;;;;;;;;;;5074298;28;20416;-77
2022/08/12 05:36:07;;;;;;;9.87;6.50;;;;;;;;;;5074391;28;20449;-77
2022/08/12 05:41:25;;;;;;;9.03;7.53;;;;;;;;;;5073842;28;20564;-76
2022/08/12 05:43:58;;;;;;;7.93;7.13;;;;;;;;;;5062316;28;20449;-77
2022/08/12 05:46:25;;;;;;;9.50;7.30;;;;;;;;;;5061041;28;20408;-77
2022/08/12 05:48:53;;;;;;;8.40;6.70;;;;;;;;;;5064486;28;20870;-75
2022/08/12 05:51:19;;;;;;;10.80;7.97;;;;;;;;;;5063464;28;20440;-77
2022/08/12 05:53:45;;;;;;;10.33;7.03;;;;;;;;;;5046228;28;20410;-75
2022/08/12 05:56:19;;;;;;;7.40;6.30;;;;;;;;;;5064214;28;20892;-77
2022/08/12 05:58:47;;;;;;;8.63;6.13;;;;;;;;;;5063604;28;20413;-75
2022/08/12 06:01:13;;;;;;;8.50;6.30;;;;;;;;;;5061668;28;20456;-74
2022/08/12 06:03:40;;;;;;;7.80;6.20;;;;;;;;;;5062150;28;20412;-75
2022/08/12 06:06:07;;;;;;;6.10;4.50;;;;;;;;;;5062613;28;20799;-76
2022/08/12 06:08:35;;;;;;;5.10;3.53;;;;;;;;;;5061366;28;20808;-78
2022/08/12 06:11:03;;;;;;;6.70;3.73;;;;;;;;;;5053090;28;20436;-77
2022/08/12 06:13:29;;;;;;;4.20;3.07;;;;;;;;;;5072545;28;20436;-78
2022/08/12 06:15:56;;;;;;;7.10;3.33;;;;;;;;;;5073333;28;20446;-77
2022/08/12 06:18:22;;;;;;;4.60;3.37;;;;;;;;;;5064737;28;20474;-77
2022/08/12 06:20:48;;;;;;;5.37;3.47;;;;;;;;;;5053105;28;20484;-77
2022/08/12 06:23:15;;;;;;;3.90;3.50;;;;;;;;;;5053315;28;20526;-76
2022/08/12 06:25:42;;;;;;;5.20;3.10;;;;;;;;;;5053182;28;20431;-78
2022/08/12 06:28:16;;;;;;;5.20;3.60;;;;;;;;;;5053142;28;20404;-74
2022/08/12 06:30:43;;;;;;;7.23;4.03;;;;;;;;;;5052771;28;20440;-77
2022/08/12 06:33:09;;;;;;;5.03;3.20;;;;;;;;;;5035680;28;20412;-77
2022/08/12 06:35:35;;;;;;;10.73;3.43;;;;;;;;;;5053182;28;20448;-75
2022/08/12 06:38:02;;;;;;;3.57;3.20;;;;;;;;;;5053053;28;20455;-78
2022/08/12 06:43:13;;;;;;;5.90;3.77;;;;;;;;;;5053418;28;20516;-76
2022/08/12 06:45:48;;;;;;;4.77;3.30;;;;;;;;;;5058548;28;20439;-76
2022/08/12 06:48:15;;;;;;;5.90;4.33;;;;;;;;;;5052598;28;20408;-77
2022/08/12 06:50:43;;;;;;;4.77;3.23;;;;;;;;;;5052787;28;20830;-77
2022/08/12 06:53:09;;;;;;;4.30;3.33;;;;;;;;;;5053052;28;20471;-75
2022/08/12 06:55:36;;;;;;;7.30;3.67;;;;;;;;;;5073106;28;20403;-76
2022/08/12 06:58:03;;;;;;;4.20;3.03;;;;;;;;;;5075951;28;20435;-78
2022/08/12 07:00:32;;;;;;;6.47;3.63;;;;;;;;;;5076500;28;20415;-75
2022/08/12 07:02:59;;;;;;;7.77;3.27;;;;;;;;;;5077146;28;20415;-76
2022/08/12 07:05:25;;;;;;;12.17;3.23;;;;;;;;;;5068046;28;20764;-76
2022/08/12 07:07:57;;;;;;;6.70;3.90;;;;;;;;;;5061171;28;20419;-78
2022/08/12 07:10:23;;;;;;;9.90;3.50;;;;;;;;;;5076407;28;20554;-78
2022/08/12 07:12:53;;;;;;;5.00;3.67;;;;;;;;;;5076924;28;20839;-77
2022/08/12 07:15:21;;;;;;;5.30;4.13;;;;;;;;;;5077084;28;20462;-77
2022/08/12 07:17:47;;;;;;;4.77;3.50;;;;;;;;;;5058917;28;20457;-79
2022/08/12 07:20:13;;;;;;;4.90;3.13;;;;;;;;;;5076289;28;20439;-77
2022/08/12 07:22:40;;;;;;;8.87;3.20;;;;;;;;;;5066153;28;20471;-78
2022/08/12 07:27:54;;;;;;;4.07;3.40;;;;;;;;;;5056568;28;20404;-76
2022/08/12 07:30:21;;;;;;;4.73;3.40;;;;;;;;;;5055948;28;20421;-77
2022/08/12 07:32:50;;;;;;;7.37;3.47;;;;;;;;;;5056465;28;20404;-77
2022/08/12 07:35:16;;;;;;;8.27;3.20;;;;;;;;;;5057317;28;20447;-77
2022/08/12 07:37:43;;;;;;;3.57;3.03;;;;;;;;;;5067808;28;20897;-76
2022/08/12 07:40:12;;;;;;;3.43;2.80;;;;;;;;;;5064666;28;20434;-77
2022/08/12 07:42:39;;;;;;;6.00;3.70;;;;;;;;;;5069392;28;20589;-77
2022/08/12 07:45:06;;;;;;;8.30;4.23;;;;;;;;;;5058874;28;20782;-76
2022/08/12 07:47:33;;;;;;;6.07;4.27;;;;;;;;;;5056208;28;20408;-77
2022/08/12 07:50:00;;;;;;;10.13;3.40;;;;;;;;;;5039754;28;20404;-77
2022/08/12 07:52:26;;;;;;;4.57;3.20;;;;;;;;;;5067295;28;20408;-76
2022/08/12 07:54:52;;;;;;;3.30;3.00;;;;;;;;;;5066684;28;20419;-77
2022/08/12 07:57:19;;;;;;;6.30;3.10;;;;;;;;;;5074136;28;20419;-76
2022/08/12 07:59:45;;;;;;;6.47;3.17;;;;;;;;;;5075644;28;20465;-76
2022/08/12 08:02:11;;;;;;;8.00;3.07;;;;;;;;;;5076045;28;20463;-77
2022/08/12 08:04:55;;;;;;;6.10;3.10;;;;;;;;;;5075663;28;20423;-77
2022/08/12 08:07:22;;;;;;;5.47;3.07;;;;;;;;;;5075882;28;20777;-77
2022/08/12 08:09:48;;;;;;;3.90;2.73;;;;;;;;;;5074750;28;20426;-77
2022/08/12 08:14:59;;;;;;;5.90;3.27;;;;;;;;;;5041199;28;20448;-77
2022/08/12 08:17:25;;;;;;;6.90;2.93;;;;;;;;;;5055582;28;20788;-76
2022/08/12 08:19:52;;;;;;;4.90;2.90;;;;;;;;;;5055235;28;20405;-77
2022/08/12 08:22:18;;;;;;;4.20;3.20;;;;;;;;;;5055703;28;20504;-77
2022/08/12 08:24:45;;;;;;;8.30;3.73;;;;;;;;;;5055701;28;20408;-77
2022/08/12 08:27:11;;;;;;;8.10;2.77;;;;;;;;;;5055650;28;20825;-77
2022/08/12 08:29:37;;;;;;;4.33;3.37;;;;;;;;;;5054982;28;20409;-77
2022/08/12 08:32:08;;;;;;;4.63;3.37;;;;;;;;;;5037735;28;20449;-77
2022/08/12 08:34:35;;;;;;;4.27;2.70;;;;;;;;;;5055325;28;20432;-77
2022/08/12 08:37:01;;;;;;;6.10;2.57;;;;;;;;;;5055297;28;20913;-77
2022/08/12 08:39:27;;;;;;;6.30;2.73;;;;;;;;;;5055191;28;20400;-77
2022/08/12 08:44:41;;;;;;;5.93;3.33;;;;;;;;;;5055381;28;20443;-77
2022/08/12 08:47:07;;;;;;;5.57;2.57;;;;;;;;;;5055022;28;20400;-77
2022/08/12 08:49:36;;;;;;;12.60;3.17;;;;;;;;;;5054788;28;20431;-77
2022/08/12 08:52:06;;;;;;;4.27;3.00;;;;;;;;;;5055008;28;20436;-75
2022/08/12 08:54:36;;;;;;;2.90;2.20;;;;;;;;;;5055069;28;20447;-77
2022/08/12 08:57:03;;;;;;;3.37;2.77;;;;;;;;;;5038002;28;20411;-77
2022/08/12 08:59:29;;;;;;;8.57;2.50;;;;;;;;;;5036885;28;20455;-77
2022/08/12 09:01:56;;;;;;;8.03;2.97;;;;;;;;;;5054844;28;21250;-74
2022/08/12 09:04:23;;;;;;;5.07;2.67;;;;;;;;;;5054832;28;20817;-74
2022/08/12 09:06:53;;;;;;;5.50;2.83;;;;;;;;;;5054713;28;20921;-74
2022/08/12 09:09:19;;;;;;;3.20;2.10;;;;;;;;;;5054673;28;20424;-75
2022/08/12 09:14:30;;;;;;;6.87;2.20;;;;;;;;;;5058894;28;20941;-73
2022/08/12 09:16:56;;;;;;;4.33;2.80;;;;;;;;;;5074736;28;20412;-75
2022/08/12 09:19:22;;;;;;;2.67;2.47;;;;;;;;;;5074553;28;20403;-73
2022/08/12 09:21:48;;;;;;;3.30;2.27;;;;;;;;;;5073054;28;20923;-73
2022/08/12 09:24:17;;;;;;;4.10;2.23;;;;;;;;;;5074550;28;20407;-73
2022/08/12 09:26:44;;;;;;;8.00;2.40;;;;;;;;;;5074619;28;20452;-72
2022/08/12 09:29:12;;;;;;;2.43;2.20;;;;;;;;;;5074165;28;20813;-74
2022/08/12 09:31:38;;;;;;;3.17;2.13;;;;;;;;;;5072567;28;20435;-73
2022/08/12 09:34:07;;;;;;;2.77;2.30;;;;;;;;;;5074244;28;20403;-73
2022/08/12 09:36:37;;;;;;;5.17;2.27;;;;;;;;;;5074346;28;20414;-73
2022/08/12 09:39:03;;;;;;;4.57;2.37;;;;;;;;;;5057059;28;20779;-73
2022/08/12 09:41:37;;;;;;;3.67;2.23;;;;;;;;;;5073378;28;20466;-73
2022/08/12 09:46:47;;;;;;;5.67;2.03;;;;;;;;;;5074222;28;20402;-73
2022/08/12 09:49:14;;;;;;;2.90;2.00;;;;;;;;;;5060692;28;20403;-73
2022/08/12 09:51:42;;;;;;;2.40;2.20;;;;;;;;;;5063915;28;20467;-73
2022/08/12 09:54:11;;;;;;;3.90;2.07;;;;;;;;;;5063053;28;20400;-73
2022/08/12 09:56:41;;;;;;;3.30;2.20;;;;;;;;;;5062604;28;20410;-73
2022/08/12 09:59:08;;;;;;;2.47;2.27;;;;;;;;;;5064331;28;20929;-73
2022/08/12 10:01:37;;;;;;;4.60;2.27;;;;;;;;;;5063024;28;20452;-73
2022/08/12 10:04:09;;;;;;;2.87;1.90;;;;;;;;;;5056228;28;20403;-74
2022/08/12 10:06:38;;;;;;;3.63;1.80;;;;;;;;;;5073764;28;20415;-73
2022/08/12 10:09:07;;;;;;;2.40;1.97;;;;;;;;;;5073519;28;20457;-73
2022/08/12 10:14:18;;;;;;;3.57;2.13;;;;;;;;;;5073670;28;20575;-72
2022/08/12 10:16:44;;;;;;;2.37;1.80;;;;;;;;;;5061228;28;20502;-72
2022/08/12 10:19:11;;;;;;;5.40;2.20;;;;;;;;;;5055966;28;20423;-72
2022/08/12 10:21:38;;;;;;;9.00;6.23;;;;;;;;;;5052838;28;20960;-72
2022/08/12 10:24:05;;;;;;;3.00;2.17;;;;;;;;;;5053368;28;20440;-72
2022/08/12 10:29:37;;;;;;;3.00;1.90;;;;;;;;;;5053755;28;20403;-72
2022/08/12 10:32:05;;;;;;;5.03;2.37;;;;;;;;;;5052937;28;20494;-72
2022/08/12 10:34:31;;;;;;;2.03;1.70;;;;;;;;;;5053287;28;20900;-72
2022/08/12 10:36:58;;;;;;;3.00;2.07;;;;;;;;;;5053270;28;20501;-72
2022/08/12 10:39:25;;;;;;;1.93;1.80;;;;;;;;;;5053014;28;20469;-73
2022/08/12 10:44:38;;;;;;;2.60;2.00;;;;;;;;;;5053166;28;20501;-73
2022/08/12 10:47:04;;;;;;;3.63;2.20;;;;;;;;;;5052958;28;20487;-72
2022/08/12 10:49:36;;;;;;;2.37;2.10;;;;;;;;;;5052588;28;20423;-79
2022/08/12 10:52:02;;;;;;;2.30;2.10;;;;;;;;;;5052737;28;20489;-73
2022/08/12 10:54:29;;;;;;;5.30;2.20;;;;;;;;;;5053048;28;20511;-72
2022/08/12 10:56:56;;;;;;;2.17;1.97;;;;;;;;;;5053104;28;20408;-73
2022/08/12 10:59:23;;;;;;;2.33;1.93;;;;;;;;;;5052922;28;20506;-72
2022/08/12 11:01:50;;;;;;;1.70;1.60;;;;;;;;;;5052280;28;20831;-73
2022/08/12 11:04:16;;;;;;;2.30;2.10;;;;;;;;;;5052839;28;20408;-73
2022/08/12 11:06:46;;;;;;;3.03;2.50;;;;;;;;;;5052624;28;20514;-72
2022/08/12 11:09:31;;;;;;;1.90;1.63;;;;;;;;;;5052921;28;20412;-73
2022/08/12 11:12:05;;;;;;;2.13;2.00;;;;;;;;;;5052741;28;20424;-73
2022/08/12 11:14:34;;;;;;;4.13;2.00;;;;;;;;;;5052740;28;20928;-72
2022/08/12 11:17:01;;;;;;;2.83;1.70;;;;;;;;;;5052790;28;20432;-72
2022/08/12 11:19:27;;;;;;;2.40;1.97;;;;;;;;;;5052694;28;20527;-73
2022/08/12 11:21:54;;;;;;;4.83;1.90;;;;;;;;;;5052335;28;20464;-73
2022/08/12 11:24:20;;;;;;;3.40;1.80;;;;;;;;;;5052822;28;20408;-73
2022/08/12 11:26:48;;;;;;;2.23;1.57;;;;;;;;;;5052791;28;20495;-73
2022/08/12 11:29:14;;;;;;;2.90;1.80;;;;;;;;;;5052741;28;20404;-73
2022/08/12 11:31:40;;;;;;;3.30;2.30;;;;;;;;;;5052296;28;20435;-73
2022/08/12 11:34:06;;;;;;;3.27;1.60;;;;;;;;;;5052612;28;20893;-73
2022/08/12 11:36:32;;;;;;;3.10;1.90;;;;;;;;;;5052520;28;20408;-73
2022/08/12 11:38:58;;;;;;;3.27;1.53;;;;;;;;;;5052694;28;20412;-73
2022/08/12 11:41:24;;;;;;;7.20;1.60;;;;;;;;;;5052025;28;20471;-73
2022/08/12 11:43:50;;;;;;;3.00;1.70;;;;;;;;;;5053036;28;20412;-73
2022/08/12 11:46:18;;;;;;;1.60;1.50;;;;;;;;;;5056026;28;20414;-73
2022/08/12 11:48:44;;;;;;;2.43;1.60;;;;;;;;;;5056189;28;20916;-72
2022/08/12 11:51:10;;;;;;;2.43;1.30;;;;;;;;;;5055692;28;20832;-72
2022/08/12 11:53:36;;;;;;;3.30;1.60;;;;;;;;;;5055994;28;20420;-73
2022/08/12 11:56:03;;;;;;;4.53;1.70;;;;;;;;;;5055912;28;20498;-73
2022/08/12 11:58:29;;;;;;;1.73;1.60;;;;;;;;;;5055908;28;20422;-72
2022/08/12 12:00:55;;;;;;;4.13;1.93;;;;;;;;;;5055518;28;20431;-71
2022/08/12 12:03:21;;;;;;;3.97;1.70;;;;;;;;;;5056386;28;20775;-72
2022/08/12 12:05:47;;;;;;;3.07;1.80;;;;;;;;;;5055758;28;20893;-72
2022/08/12 12:08:20;;;;;;;3.23;1.53;;;;;;;;;;5056042;28;20410;-74
2022/08/12 12:10:46;;;;;;;2.97;2.23;;;;;;;;;;5037531;28;20451;-73
2022/08/12 12:13:12;;;;;;;2.20;2.00;;;;;;;;;;5055647;28;20432;-74
2022/08/12 12:15:38;;;;;;;3.63;1.90;;;;;;;;;;5056006;28;20493;-73
2022/08/12 12:18:04;;;;;;;2.27;1.60;;;;;;;;;;5055789;28;20404;-73
2022/08/12 12:20:30;;;;;;;3.60;1.90;;;;;;;;;;5055069;28;20785;-74
2022/08/12 12:22:57;;;;;;;2.20;2.10;;;;;;;;;;5055636;28;20550;-73
2022/08/12 12:25:23;;;;;;;4.40;1.90;;;;;;;;;;5037629;28;20429;-74
2022/08/12 12:27:49;;;;;;;2.97;1.70;;;;;;;;;;5055439;28;20415;-74
2022/08/12 12:30:15;;;;;;;3.00;1.50;;;;;;;;;;5055066;28;20490;-73
2022/08/12 12:32:41;;;;;;;3.53;1.70;;;;;;;;;;5055302;28;20738;-73
2022/08/12 12:35:07;;;;;;;4.07;1.63;;;;;;;;;;5055269;28;20415;-72
2022/08/12 12:37:33;;;;;;;1.80;1.67;;;;;;;;;;5037604;28;20466;-72
2022/08/12 12:39:59;;;;;;;3.37;1.70;;;;;;;;;;5054918;28;20786;-73
2022/08/12 12:42:25;;;;;;;4.30;2.30;;;;;;;;;;5054993;28;20467;-72
2022/08/12 12:44:51;;;;;;;3.33;1.87;;;;;;;;;;5055119;28;20439;-73
2022/08/12 12:47:17;;;;;;;2.07;1.77;;;;;;;;;;5055118;28;20506;-72
2022/08/12 12:49:43;;;;;;;2.33;1.60;;;;;;;;;;5054634;28;20495;-72
2022/08/12 12:52:09;;;;;;;1.60;1.50;;;;;;;;;;5055050;28;20434;-74
2022/08/12 12:54:35;;;;;;;2.73;2.00;;;;;;;;;;5054534;28;20416;-74
2022/08/12 12:57:01;;;;;;;2.97;2.00;;;;;;;;;;5054855;28;20966;-71
2022/08/12 12:59:27;;;;;;;2.97;1.87;;;;;;;;;;5055040;28;20427;-74
2022/08/12 13:01:54;;;;;;;2.37;1.57;;;;;;;;;;5036874;28;20468;-71
2022/08/12 13:04:20;;;;;;;2.33;1.30;;;;;;;;;;5054794;28;20440;-71
2022/08/12 13:06:50;;;;;;;2.23;1.67;;;;;;;;;;5054579;28;20502;-72
2022/08/12 13:09:17;;;;;;;2.73;1.80;;;;;;;;;;5054820;28;20407;-73
2022/08/12 13:11:43;;;;;;;4.03;1.30;;;;;;;;;;5054408;28;20443;-73
2022/08/12 13:14:10;;;;;;;2.80;1.57;;;;;;;;;;5054510;28;20427;-72
2022/08/12 13:16:37;;;;;;;2.30;1.40;;;;;;;;;;5036705;28;20416;-73
2022/08/12 13:19:03;;;;;;;2.40;1.80;;;;;;;;;;5062200;28;20791;-72
2022/08/12 13:21:29;;;;;;;3.30;1.77;;;;;;;;;;5062242;28;20459;-72
2022/08/12 13:23:56;;;;;;;3.77;1.53;;;;;;;;;;5074627;28;20403;-72
2022/08/12 13:26:22;;;;;;;3.13;1.50;;;;;;;;;;5074449;28;20405;-72
2022/08/12 13:28:52;;;;;;;2.30;1.93;;;;;;;;;;5074241;28;20490;-73
2022/08/12 13:31:18;;;;;;;1.83;1.73;;;;;;;;;;5073885;28;20927;-72
2022/08/12 13:33:45;;;;;;;4.73;1.70;;;;;;;;;;5074404;28;20934;-72
2022/08/12 13:36:11;;;;;;;3.77;1.90;;;;;;;;;;5075102;28;20415;-73
2022/08/12 13:38:37;;;;;;;1.80;1.60;;;;;;;;;;5074398;28;20407;-72
2022/08/12 13:41:04;;;;;;;4.20;1.47;;;;;;;;;;5073779;28;20819;-74
2022/08/12 13:43:31;;;;;;;2.97;2.23;;;;;;;;;;5073874;28;20509;-73
2022/08/12 13:45:58;;;;;;;3.20;1.80;;;;;;;;;;5073917;28;20407;-73
2022/08/12 13:48:24;;;;;;;1.80;1.43;;;;;;;;;;5074025;28;20557;-73
2022/08/12 13:50:50;;;;;;;3.20;1.60;;;;;;;;;;5072758;28;20458;-75
2022/08/12 13:53:17;;;;;;;2.97;1.70;;;;;;;;;;5073616;28;20868;-73
2022/08/12 13:55:44;;;;;;;1.87;1.77;;;;;;;;;;5073753;28;20409;-73
2022/08/12 13:58:15;;;;;;;5.47;2.10;;;;;;;;;;5073721;28;20466;-74
2022/08/12 14:00:44;;;;;;;1.30;1.20;;;;;;;;;;5073067;28;20453;-73
2022/08/12 14:03:13;;;;;;;2.60;1.30;;;;;;;;;;5073691;28;20501;-73
2022/08/12 14:05:39;;;;;;;4.50;1.53;;;;;;;;;;5073597;28;20814;-73
2022/08/12 14:08:06;;;;;;;2.20;1.63;;;;;;;;;;5072961;28;20414;-73
2022/08/12 14:10:36;;;;;;;2.30;1.77;;;;;;;;;;5072751;28;20531;-73
2022/08/12 14:13:19;;;;;;;1.77;1.60;;;;;;;;;;5073307;28;20449;-74
2022/08/12 14:15:52;;;;;;;2.70;1.60;;;;;;;;;;5073571;28;20415;-73
2022/08/12 14:18:22;;;;;;;1.60;1.33;;;;;;;;;;5073279;28;20502;-74
2022/08/12 14:20:57;;;;;;;1.50;1.40;;;;;;;;;;5073099;28;20507;-73
2022/08/12 14:23:24;;;;;;;2.27;1.60;;;;;;;;;;5073352;28;20906;-73
2022/08/12 14:25:50;;;;;;;1.70;1.60;;;;;;;;;;5073255;28;20459;-73
2022/08/12 14:28:17;;;;;;;1.90;1.50;;;;;;;;;;5073308;28;20494;-74
2022/08/12 14:30:44;;;;;;;1.57;1.47;;;;;;;;;;5072430;28;20439;-74
2022/08/12 14:33:11;;;;;;;2.13;1.60;;;;;;;;;;5073193;28;20403;-74
2022/08/12 14:35:37;;;;;;;5.03;1.60;;;;;;;;;;5073123;28;20415;-74
2022/08/12 14:38:16;;;;;;;1.33;1.23;;;;;;;;;;5073243;28;20411;-73
2022/08/12 14:40:43;;;;;;;1.90;1.70;;;;;;;;;;5072566;28;20924;-73
2022/08/12 14:43:09;;;;;;;2.97;1.57;;;;;;;;;;5072913;28;20422;-75
2022/08/12 14:45:36;;;;;;;2.17;1.50;;;;;;;;;;5073074;28;20791;-73
2022/08/12 14:48:03;;;;;;;2.20;1.50;;;;;;;;;;5069517;28;20773;-73
2022/08/12 14:50:29;;;;;;;2.10;1.67;;;;;;;;;;5052814;28;20435;-73
2022/08/12 14:52:55;;;;;;;2.50;1.40;;;;;;;;;;5053073;28;20746;-73
2022/08/12 14:55:21;;;;;;;1.83;1.40;;;;;;;;;;5052912;28;20442;-73
2022/08/12 14:57:55;;;;;;;1.50;1.40;;;;;;;;;;5064868;28;20427;-73
2022/08/12 15:03:07;;;;;;;1.77;1.47;;;;;;;;;;5073286;28;20453;-74
2022/08/12 15:05:37;;;;;;;3.33;1.60;;;;;;;;;;5072919;28;20492;-74
2022/08/12 15:08:12;;;;;;;2.10;1.27;;;;;;;;;;5072392;28;20452;-74
2022/08/12 15:10:39;;;;;;;2.80;1.80;;;;;;;;;;5072500;28;20410;-74
2022/08/12 15:13:06;;;;;;;4.07;1.87;;;;;;;;;;5073009;28;20903;-73
2022/08/12 15:15:37;;;;;;;1.90;1.50;;;;;;;;;;5072923;28;20399;-73
2022/08/12 15:18:04;;;;;;;1.87;1.67;;;;;;;;;;5073401;28;20427;-73
2022/08/12 15:20:31;;;;;;;5.10;1.57;;;;;;;;;;5076345;28;20514;-73
2022/08/12 15:22:58;;;;;;;1.90;1.63;;;;;;;;;;5076607;28;20483;-73
2022/08/12 15:25:25;;;;;;;1.93;1.73;;;;;;;;;;5076791;28;20425;-73
2022/08/12 15:27:52;;;;;;;1.60;1.50;;;;;;;;;;5076453;28;20419;-73
2022/08/12 15:30:18;;;;;;;3.17;1.53;;;;;;;;;;5076225;28;20427;-73
2022/08/12 15:32:45;;;;;;;2.00;1.43;;;;;;;;;;5058747;28;20415;-73
2022/08/12 15:35:13;;;;;;;2.03;1.57;;;;;;;;;;5076395;28;20489;-73
2022/08/12 15:37:40;;;;;;;1.70;1.60;;;;;;;;;;5076269;28;20451;-73
2022/08/12 15:40:06;;;;;;;1.70;1.40;;;;;;;;;;5075888;28;20441;-73
2022/08/12 15:42:33;;;;;;;3.67;1.83;;;;;;;;;;5076129;28;20466;-73
2022/08/12 15:44:59;;;;;;;2.03;1.77;;;;;;;;;;5076452;28;20774;-73
2022/08/12 15:47:25;;;;;;;7.20;1.50;;;;;;;;;;5075769;28;20415;-74
2022/08/12 15:49:52;;;;;;;5.80;4.00;;;;;;;;;;5064522;28;20775;-75
2022/08/12 15:52:22;;;;;;;2.80;2.10;;;;;;;;;;5070724;28;20419;-74
2022/08/12 15:54:50;;;;;;;4.33;2.20;;;;;;;;;;5066080;28;20415;-75
2022/08/12 15:57:18;;;;;;;2.37;1.47;;;;;;;;;;5065652;28;20784;-74
2022/08/12 15:59:45;;;;;;;2.50;1.40;;;;;;;;;;5075568;28;20411;-75
2022/08/12 16:02:13;;;;;;;1.80;1.57;;;;;;;;;;5075540;28;20454;-74
2022/08/12 16:04:39;;;;;;;2.90;1.50;;;;;;;;;;5075818;28;20502;-74
2022/08/12 16:07:05;;;;;;;2.80;1.30;;;;;;;;;;5075545;28;20414;-74
2022/08/12 16:09:32;;;;;;;1.90;1.50;;;;;;;;;;5075523;28;20408;-75
2022/08/12 16:12:02;;;;;;;1.53;1.37;;;;;;;;;;5075687;28;20883;-79
2022/08/12 16:14:29;;;;;;;2.47;1.27;;;;;;;;;;5075556;28;20422;-74
2022/08/12 16:16:55;;;;;;;3.47;1.33;;;;;;;;;;5075609;28;20403;-74
2022/08/12 16:19:21;;;;;;;2.50;2.30;;;;;;;;;;5057684;28;20414;-74
2022/08/12 16:21:47;;;;;;;3.60;2.63;;;;;;;;;;5057659;28;20549;-75
2022/08/12 16:24:13;;;;;;;2.00;1.50;;;;;;;;;;5075538;28;20790;-75
2022/08/12 16:26:39;;;;;;;1.77;1.20;;;;;;;;;;5075255;28;20416;-75
2022/08/12 16:29:05;;;;;;;1.87;1.67;;;;;;;;;;5075338;28;20430;-74
2022/08/12 16:31:33;;;;;;;2.47;1.60;;;;;;;;;;5074535;28;20430;-74
2022/08/12 16:33:59;;;;;;;1.70;1.33;;;;;;;;;;5075415;28;20494;-75
2022/08/12 16:36:25;;;;;;;1.83;1.57;;;;;;;;;;5075256;28;20924;-75
2022/08/12 16:38:51;;;;;;;1.67;1.57;;;;;;;;;;5075514;28;20769;-74
2022/08/12 16:41:17;;;;;;;3.23;1.60;;;;;;;;;;5074984;28;20867;-74
2022/08/12 16:43:43;;;;;;;1.87;1.70;;;;;;;;;;5075043;28;20411;-75
2022/08/12 16:46:10;;;;;;;3.23;1.70;;;;;;;;;;5074923;28;20436;-74
2022/08/12 16:48:38;;;;;;;1.97;1.70;;;;;;;;;;5074785;28;20187;-74
2022/08/12 16:51:05;;;;;;;2.20;1.80;;;;;;;;;;5074820;28;20441;-74
2022/08/12 16:53:38;;;;;;;2.70;1.63;;;;;;;;;;5075028;28;20421;-74
2022/08/12 16:56:05;;;;;;;7.90;2.00;;;;;;;;;;5074973;28;20426;-74
2022/08/12 16:58:31;;;;;;;5.60;1.77;;;;;;;;;;5074567;28;20498;-74
2022/08/12 17:00:59;;;;;;;3.13;1.93;;;;;;;;;;5073107;28;20443;-74
2022/08/12 17:03:26;;;;;;;1.67;1.57;;;;;;;;;;5053321;28;20427;-74
2022/08/12 17:05:53;;;;;;;1.80;1.70;;;;;;;;;;5074986;28;20411;-74
2022/08/12 17:08:20;;;;;;;3.57;1.40;;;;;;;;;;5074662;28;20409;-74
2022/08/12 17:10:47;;;;;;;1.60;1.50;;;;;;;;;;5074125;28;20468;-74
2022/08/12 17:13:13;;;;;;;2.43;1.40;;;;;;;;;;5068732;28;20444;-74
2022/08/12 17:15:40;;;;;;;10.00;1.80;;;;;;;;;;5058829;28;20412;-74
2022/08/12 17:18:08;;;;;;;3.47;1.60;;;;;;;;;;5060915;28;20419;-74
2022/08/12 17:20:35;;;;;;;4.57;1.50;;;;;;;;;;5071708;28;20442;-74
2022/08/12 17:23:02;;;;;;;2.53;1.67;;;;;;;;;;5072844;28;20462;-74
2022/08/12 17:25:28;;;;;;;2.70;2.50;;;;;;;;;;5073110;28;20460;-74
2022/08/12 17:27:54;;;;;;;1.90;1.80;;;;;;;;;;5072766;28;20411;-76
2022/08/12 17:30:20;;;;;;;3.00;1.90;;;;;;;;;;5072255;28;20431;-73
2022/08/12 17:32:47;;;;;;;1.50;1.40;;;;;;;;;;5072694;28;20466;-73
2022/08/12 17:35:28;;;;;;;1.70;1.60;;;;;;;;;;5038619;28;20936;-73
2022/08/12 17:37:55;;;;;;;2.20;1.63;;;;;;;;;;5071311;28;20407;-73
2022/08/12 17:40:25;;;;;;;2.50;1.73;;;;;;;;;;5070808;28;20792;-74
2022/08/12 17:42:51;;;;;;;3.73;1.93;;;;;;;;;;5072389;28;20482;-75
2022/08/12 17:45:17;;;;;;;3.93;1.80;;;;;;;;;;5074060;28;20414;-74
2022/08/12 17:47:43;;;;;;;3.03;1.80;;;;;;;;;;5073941;28;20412;-74
2022/08/12 17:50:10;;;;;;;1.70;1.60;;;;;;;;;;5073564;28;20489;-75
2022/08/12 17:52:37;;;;;;;4.30;1.53;;;;;;;;;;5073554;28;20419;-75
2022/08/12 17:55:04;;;;;;;3.03;1.80;;;;;;;;;;5056234;28;20423;-75
2022/08/12 17:57:30;;;;;;;3.20;1.50;;;;;;;;;;5074216;28;20922;-73
2022/08/12 17:59:56;;;;;;;3.33;1.70;;;;;;;;;;5073287;28;20411;-75
2022/08/12 18:02:24;;;;;;;3.90;1.70;;;;;;;;;;5073307;28;20455;-75
2022/08/12 18:04:50;;;;;;;2.33;1.37;;;;;;;;;;5073543;28;20407;-75
2022/08/12 18:07:16;;;;;;;3.83;2.00;;;;;;;;;;5073704;28;20457;-75
2022/08/12 18:09:43;;;;;;;1.97;1.77;;;;;;;;;;5073165;28;20410;-74
2022/08/12 18:14:59;;;;;;;3.60;1.60;;;;;;;;;;5073655;28;21006;-77
2022/08/12 18:17:25;;;;;;;3.53;2.33;;;;;;;;;;5073590;28;20495;-76
2022/08/12 18:22:29;;;;;;;3.30;1.97;;;;;;;;;;5034478;22;20573;-75
2022/08/12 18:24:56;;;;;;;2.90;1.50;;;;;;;;;;5073569;28;20461;-74
2022/08/12 18:27:22;;;;;;;3.03;1.83;;;;;;;;;;5073410;28;20407;-77
2022/08/12 18:29:52;;;;;;;5.07;1.37;;;;;;;;;;5072889;28;20406;-76
2022/08/12 18:32:21;;;;;;;3.73;2.10;;;;;;;;;;5072858;28;20437;-75
2022/08/12 18:34:49;;;;;;;3.63;1.60;;;;;;;;;;5073120;28;20441;-78
2022/08/12 18:37:17;;;;;;;2.43;1.73;;;;;;;;;;5072830;28;20447;-75
2022/08/12 18:42:28;;;;;;;3.67;2.20;;;;;;;;;;5065862;28;20462;-77
2022/08/12 18:44:57;;;;;;;6.93;2.17;;;;;;;;;;5071672;28;20427;-75
2022/08/12 18:47:25;;;;;;;3.33;2.13;;;;;;;;;;5072898;28;20507;-76
2022/08/12 18:49:52;;;;;;;1.93;1.60;;;;;;;;;;5072493;28;20461;-75
2022/08/12 18:52:19;;;;;;;3.47;2.03;;;;;;;;;;5072975;28;20416;-74
2022/08/12 18:54:45;;;;;;;3.67;2.10;;;;;;;;;;5072815;28;20408;-76
2022/08/12 18:57:11;;;;;;;2.70;2.00;;;;;;;;;;5066424;28;20932;-76
2022/08/12 18:59:38;;;;;;;3.77;2.00;;;;;;;;;;5066106;28;20432;-75
2022/08/12 19:02:05;;;;;;;3.00;2.00;;;;;;;;;;5072781;28;20557;-75
2022/08/12 19:04:31;;;;;;;3.23;1.80;;;;;;;;;;5072817;28;20780;-76
2022/08/12 19:06:59;;;;;;;1.60;1.50;;;;;;;;;;5072513;28;20444;-75
2022/08/12 19:09:35;;;;;;;3.33;1.83;;;;;;;;;;5072650;28;20412;-76
2022/08/12 19:14:50;;;;;;;2.43;2.13;;;;;;;;;;5073222;28;20435;-80
2022/08/12 19:17:17;;;;;;;4.90;1.70;;;;;;;;;;5072849;28;20439;-80
2022/08/12 19:19:43;;;;;;;5.13;2.63;;;;;;;;;;5072443;28;20399;-78